createdAt,value
2023-04-30T00:00:08.450Z,18.30
2023-04-30T00:02:38.810Z,19.20
2023-04-30T00:05:06.355Z,17.70
2023-04-30T00:07:33.919Z,18.63
2023-04-30T00:10:00.969Z,17.33
2023-04-30T00:12:31.153Z,20.70
2023-04-30T00:14:58.171Z,19.10
2023-04-30T00:17:25.302Z,18.65
2023-04-30T00:19:52.782Z,17.73
2023-04-30T00:22:20.074Z,20.70
2023-04-30T00:24:47.129Z,21.08
2023-04-30T00:27:14.395Z,24.60
2023-04-30T00:29:41.462Z,22.65
2023-04-30T00:32:08.706Z,23.15
2023-04-30T00:34:35.796Z,18.73
2023-04-30T00:37:03.991Z,17.80
2023-04-30T00:39:31.153Z,19.63
2023-04-30T00:41:58.213Z,17.08
2023-04-30T00:44:25.236Z,25.02
2023-04-30T00:46:52.340Z,20.33
2023-04-30T00:49:19.542Z,21.52
2023-04-30T00:51:46.801Z,22.55
2023-04-30T00:54:14.660Z,21.58
2023-04-30T00:56:41.881Z,20.90
2023-04-30T00:59:09.393Z,21.77
2023-04-30T01:01:37.688Z,21.50
2023-04-30T01:04:10.880Z,18.63
2023-04-30T01:06:43.739Z,20.48
2023-04-30T01:09:10.921Z,23.33
2023-04-30T01:11:56.238Z,17.83
2023-04-30T01:14:58.856Z,22.15
2023-04-30T01:17:52.824Z,20.90
2023-04-30T01:20:20.255Z,22.10
2023-04-30T01:22:52.257Z,17.90
2023-04-30T01:25:40.759Z,17.05
2023-04-30T01:28:10.031Z,21.75
2023-04-30T01:30:40.920Z,21.17
2023-04-30T01:33:08.497Z,17.73
2023-04-30T01:35:53.772Z,22.02
2023-04-30T01:38:29.941Z,19.70
2023-04-30T01:41:08.549Z,18.48
2023-04-30T01:43:38.470Z,15.80
2023-04-30T01:46:11.882Z,23.10
2023-04-30T01:48:54.782Z,22.15
2023-04-30T01:51:28.896Z,16.05
2023-04-30T01:54:00.778Z,20.65
2023-04-30T01:56:41.486Z,17.85
2023-04-30T01:59:09.767Z,15.95
2023-04-30T02:01:37.695Z,19.30
2023-04-30T02:04:05.052Z,18.55
2023-04-30T02:06:33.113Z,16.85
2023-04-30T02:09:05.486Z,17.13
2023-04-30T02:11:32.925Z,20.55
2023-04-30T02:14:00.150Z,19.15
2023-04-30T02:16:27.481Z,20.48
2023-04-30T02:18:54.550Z,18.58
2023-04-30T02:21:21.640Z,19.60
2023-04-30T02:23:48.947Z,18.65
2023-04-30T02:26:16.146Z,18.30
2023-04-30T02:28:43.264Z,18.90
2023-04-30T02:31:11.115Z,22.63
2023-04-30T02:33:38.190Z,21.10
2023-04-30T02:36:05.637Z,22.35
2023-04-30T02:38:32.628Z,25.63
2023-04-30T02:40:59.653Z,19.27
2023-04-30T02:43:26.716Z,18.10
2023-04-30T02:45:53.784Z,17.85
2023-04-30T02:48:20.910Z,21.83
2023-04-30T02:50:47.924Z,23.23
2023-04-30T02:53:15.085Z,23.48
2023-04-30T02:55:42.095Z,21.80
2023-04-30T02:58:09.574Z,29.30
2023-04-30T03:00:36.604Z,27.95
2023-04-30T03:03:04.009Z,19.52
2023-04-30T03:05:31.179Z,22.23
2023-04-30T03:07:58.163Z,18.50
2023-04-30T03:10:25.574Z,25.00
2023-04-30T03:12:53.998Z,22.85
2023-04-30T03:15:21.094Z,24.23
2023-04-30T03:17:48.173Z,21.05
2023-04-30T03:20:15.261Z,22.25
2023-04-30T03:22:42.302Z,16.80
2023-04-30T03:25:10.799Z,20.00
2023-04-30T03:27:37.975Z,20.20
2023-04-30T03:30:05.914Z,19.10
2023-04-30T03:32:33.103Z,18.60
2023-04-30T03:35:00.386Z,21.83
2023-04-30T03:37:27.405Z,19.38
2023-04-30T03:39:54.618Z,24.90
2023-04-30T03:42:21.789Z,19.23
2023-04-30T03:44:48.844Z,25.35
2023-04-30T03:47:15.963Z,22.85
2023-04-30T03:49:43.776Z,25.58
2023-04-30T03:52:11.346Z,17.42
2023-04-30T03:54:38.606Z,20.73
2023-04-30T03:57:07.948Z,20.73
2023-04-30T03:59:35.271Z,20.30
2023-04-30T04:02:02.384Z,20.52
2023-04-30T04:04:30.396Z,24.20
2023-04-30T04:06:58.641Z,21.80
2023-04-30T04:09:25.672Z,23.95
2023-04-30T04:11:52.656Z,21.80
2023-04-30T04:14:19.625Z,23.20
2023-04-30T04:16:47.376Z,21.65
2023-04-30T04:19:14.560Z,23.20
2023-04-30T04:21:41.693Z,24.65
2023-04-30T04:24:14.507Z,23.48
2023-04-30T04:26:41.729Z,26.17
2023-04-30T04:29:10.667Z,25.58
2023-04-30T04:31:38.893Z,24.55
2023-04-30T04:34:05.993Z,20.70
2023-04-30T04:36:34.316Z,21.98
2023-04-30T04:39:02.399Z,20.90
2023-04-30T04:41:30.382Z,20.20
2023-04-30T04:43:57.796Z,19.42
2023-04-30T04:46:26.193Z,23.38
2023-04-30T04:48:53.414Z,20.58
2023-04-30T04:51:20.774Z,21.35
2023-04-30T04:53:48.525Z,23.15
2023-04-30T04:56:15.934Z,19.55
2023-04-30T04:58:44.639Z,23.98
2023-04-30T05:01:12.059Z,27.65
2023-04-30T05:03:39.240Z,25.73
2023-04-30T05:06:06.472Z,22.23
2023-04-30T05:08:33.576Z,22.15
2023-04-30T05:11:01.018Z,24.55
2023-04-30T05:13:28.103Z,20.67
2023-04-30T05:15:55.616Z,21.60
2023-04-30T05:18:22.691Z,22.52
2023-04-30T05:20:49.922Z,22.27
2023-04-30T05:23:17.079Z,20.08
2023-04-30T05:25:44.278Z,21.02
2023-04-30T05:28:11.796Z,18.70
2023-04-30T05:30:38.864Z,15.82
2023-04-30T05:33:05.902Z,19.80
2023-04-30T05:35:36.179Z,18.58
2023-04-30T05:38:04.011Z,15.77
2023-04-30T05:40:31.224Z,18.13
2023-04-30T05:42:58.369Z,20.80
2023-04-30T05:45:25.484Z,14.57
2023-04-30T05:47:52.679Z,15.75
2023-04-30T05:50:20.152Z,15.02
2023-04-30T05:52:47.161Z,14.32
2023-04-30T05:55:14.179Z,15.15
2023-04-30T05:57:41.144Z,18.95
2023-04-30T06:00:08.973Z,14.38
2023-04-30T06:02:41.899Z,17.50
2023-04-30T06:05:09.329Z,15.70
2023-04-30T06:07:36.918Z,13.25
2023-04-30T06:10:04.372Z,12.38
2023-04-30T06:12:33.947Z,12.80
2023-04-30T06:15:01.138Z,14.75
2023-04-30T06:17:28.369Z,12.52
2023-04-30T06:19:55.770Z,10.52
2023-04-30T06:22:23.077Z,11.77
2023-04-30T06:24:50.077Z,10.95
2023-04-30T06:27:17.103Z,12.77
2023-04-30T06:29:44.117Z,10.60
2023-04-30T06:32:11.153Z,10.80
2023-04-30T06:34:38.692Z,12.00
2023-04-30T06:37:06.050Z,11.68
2023-04-30T06:39:33.091Z,9.50
2023-04-30T06:42:00.116Z,9.38
2023-04-30T06:44:28.751Z,10.30
2023-04-30T06:46:55.905Z,12.98
2023-04-30T06:49:22.982Z,8.80
2023-04-30T06:51:50.184Z,8.23
2023-04-30T06:54:17.265Z,9.98
2023-04-30T06:56:45.245Z,9.35
2023-04-30T06:59:12.423Z,9.77
2023-04-30T07:01:39.552Z,8.10
2023-04-30T07:04:07.242Z,6.00
2023-04-30T07:06:34.391Z,5.53
2023-04-30T07:09:02.153Z,5.72
2023-04-30T07:11:29.331Z,7.60
2023-04-30T07:13:56.980Z,5.82
2023-04-30T07:16:26.096Z,7.43
2023-04-30T07:18:53.192Z,6.20
2023-04-30T07:21:20.239Z,8.85
2023-04-30T07:23:48.794Z,6.63
2023-04-30T07:26:16.062Z,5.35
2023-04-30T07:28:43.083Z,5.03
2023-04-30T07:31:10.130Z,7.05
2023-04-30T07:33:37.207Z,5.85
2023-04-30T07:36:04.447Z,7.43
2023-04-30T07:38:31.542Z,4.53
2023-04-30T07:40:58.550Z,3.55
2023-04-30T07:43:25.873Z,3.90
2023-04-30T07:45:54.422Z,4.40
2023-04-30T07:48:22.243Z,6.03
2023-04-30T07:50:50.751Z,4.90
2023-04-30T07:53:20.032Z,3.95
2023-04-30T07:55:47.653Z,4.35
2023-04-30T07:58:14.735Z,5.00
2023-04-30T08:00:41.773Z,6.50
2023-04-30T08:03:09.138Z,3.13
2023-04-30T08:05:36.413Z,3.35
2023-04-30T08:08:04.153Z,4.70
2023-04-30T08:10:32.131Z,8.13
2023-04-30T08:12:59.496Z,3.92
2023-04-30T08:17:54.162Z,4.18
2023-04-30T08:20:23.704Z,5.15
2023-04-30T08:22:51.391Z,4.25
2023-04-30T08:25:18.389Z,3.97
2023-04-30T08:27:46.772Z,3.33
2023-04-30T08:30:13.926Z,3.33
2023-04-30T08:32:41.606Z,3.58
2023-04-30T08:35:09.646Z,4.50
2023-04-30T08:37:36.817Z,3.67
2023-04-30T08:40:04.849Z,5.40
2023-04-30T08:42:36.787Z,3.85
2023-04-30T08:45:05.109Z,6.57
2023-04-30T08:47:33.411Z,3.70
2023-04-30T08:50:01.015Z,5.57
2023-04-30T08:52:30.162Z,4.65
2023-04-30T08:54:58.999Z,3.78
2023-04-30T08:57:26.512Z,4.00
2023-04-30T08:59:54.816Z,4.43
2023-04-30T09:02:22.137Z,4.88
2023-04-30T09:04:49.695Z,6.30
2023-04-30T09:07:18.511Z,5.95
2023-04-30T09:09:45.534Z,4.82
2023-04-30T09:12:15.234Z,3.50
2023-04-30T09:15:04.760Z,4.35
2023-04-30T09:17:34.487Z,4.88
2023-04-30T09:20:12.491Z,4.63
2023-04-30T09:22:41.486Z,3.20
2023-04-30T09:25:09.972Z,4.78
2023-04-30T09:27:37.246Z,3.42
2023-04-30T09:30:04.892Z,4.75
2023-04-30T09:32:32.827Z,4.57
2023-04-30T09:35:00.044Z,3.78
2023-04-30T09:37:38.341Z,2.95
2023-04-30T09:40:06.176Z,4.25
2023-04-30T09:42:33.372Z,5.88
2023-04-30T09:45:00.523Z,3.28
2023-04-30T09:47:30.846Z,3.42
2023-04-30T09:50:00.288Z,3.88
2023-04-30T09:52:27.482Z,4.35
2023-04-30T09:54:54.560Z,3.20
2023-04-30T09:57:23.954Z,3.72
2023-04-30T09:59:53.487Z,4.25
2023-04-30T10:02:23.619Z,2.63
2023-04-30T10:04:56.654Z,3.80
2023-04-30T10:07:29.728Z,4.05
2023-04-30T10:10:07.159Z,5.65
2023-04-30T10:12:56.504Z,2.92
2023-04-30T10:15:28.642Z,4.95
2023-04-30T10:18:07.230Z,5.78
2023-04-30T10:20:39.336Z,2.55
2023-04-30T10:23:07.396Z,4.70
2023-04-30T10:25:34.635Z,5.25
2023-04-30T10:28:03.953Z,5.40
2023-04-30T10:30:32.973Z,3.35
2023-04-30T10:33:10.829Z,3.28
2023-04-30T10:35:58.122Z,3.53
2023-04-30T10:38:28.246Z,5.60
2023-04-30T10:41:00.845Z,4.75
2023-04-30T10:43:30.628Z,3.58
2023-04-30T10:45:58.921Z,6.07
2023-04-30T10:48:27.419Z,3.97
2023-04-30T10:50:59.170Z,5.18
2023-04-30T10:53:28.711Z,3.85
2023-04-30T10:56:00.832Z,5.20
2023-04-30T10:58:31.257Z,5.35
2023-04-30T11:01:15.885Z,5.38
2023-04-30T11:04:03.687Z,4.85
2023-04-30T11:07:09.881Z,10.93
2023-04-30T11:09:42.890Z,3.20
2023-04-30T11:12:28.602Z,7.35
2023-04-30T11:15:06.749Z,3.83
2023-04-30T11:17:34.032Z,4.22
2023-04-30T11:20:03.580Z,3.95
2023-04-30T11:22:36.477Z,6.50
2023-04-30T11:25:11.105Z,3.53
2023-04-30T11:27:41.130Z,4.13
2023-04-30T11:30:16.366Z,5.53
2023-04-30T11:32:50.331Z,4.28
2023-04-30T11:35:19.908Z,4.47
2023-04-30T11:37:48.487Z,2.90
2023-04-30T11:40:16.137Z,5.30
2023-04-30T11:42:46.180Z,4.22
2023-04-30T11:45:18.149Z,5.00
2023-04-30T11:47:46.457Z,6.47
2023-04-30T11:50:19.602Z,3.58
2023-04-30T11:52:51.260Z,4.90
2023-04-30T11:55:21.565Z,4.70
2023-04-30T11:57:50.445Z,5.03
2023-04-30T12:00:22.551Z,4.55
2023-04-30T12:02:50.471Z,4.03
2023-04-30T12:05:23.249Z,5.38
2023-04-30T12:07:52.501Z,4.18
2023-04-30T12:10:20.198Z,3.92
2023-04-30T12:12:51.937Z,4.10
2023-04-30T12:15:28.131Z,4.82
2023-04-30T12:17:57.766Z,10.10
2023-04-30T12:20:28.277Z,4.70
2023-04-30T12:22:56.222Z,4.63
2023-04-30T12:25:23.910Z,15.75
2023-04-30T12:27:53.362Z,6.38
2023-04-30T12:30:27.031Z,6.05
2023-04-30T12:32:57.889Z,4.90
2023-04-30T12:35:28.069Z,4.38
2023-04-30T12:38:04.660Z,4.32
2023-04-30T12:40:32.025Z,5.43
2023-04-30T12:43:03.209Z,4.75
2023-04-30T12:45:45.519Z,4.78
2023-04-30T12:48:13.929Z,6.82
2023-04-30T12:50:41.270Z,4.65
2023-04-30T12:53:08.785Z,9.90
2023-04-30T12:55:37.904Z,5.82
2023-04-30T12:58:10.592Z,7.13
2023-04-30T13:00:51.750Z,4.03
2023-04-30T13:03:21.103Z,4.65
2023-04-30T13:05:52.674Z,4.65
2023-04-30T13:08:23.785Z,5.15
2023-04-30T13:10:51.962Z,5.07
2023-04-30T13:13:21.360Z,5.57
2023-04-30T13:15:48.702Z,6.32
2023-04-30T13:18:16.592Z,4.35
2023-04-30T13:20:44.023Z,4.57
2023-04-30T13:23:14.104Z,5.35
2023-04-30T13:25:44.663Z,3.92
2023-04-30T13:28:11.736Z,6.53
2023-04-30T13:30:39.281Z,6.03
2023-04-30T13:33:06.512Z,5.38
2023-04-30T13:35:33.604Z,4.72
2023-04-30T13:38:00.793Z,5.97
2023-04-30T13:40:27.964Z,4.05
2023-04-30T13:42:55.044Z,4.65
2023-04-30T13:45:22.242Z,7.93
2023-04-30T13:47:49.294Z,5.85
2023-04-30T13:50:16.364Z,5.75
2023-04-30T13:52:43.489Z,4.22
2023-04-30T13:55:10.541Z,5.78
2023-04-30T13:57:37.909Z,5.43
2023-04-30T14:00:06.358Z,4.70
2023-04-30T14:02:35.621Z,6.35
2023-04-30T14:05:06.744Z,5.82
2023-04-30T14:07:34.375Z,5.63
2023-04-30T14:10:01.389Z,5.45
2023-04-30T14:12:30.864Z,4.07
2023-04-30T14:14:58.066Z,4.45
2023-04-30T14:17:27.088Z,6.28
2023-04-30T14:19:55.052Z,6.47
2023-04-30T14:22:22.316Z,6.15
2023-04-30T14:24:49.300Z,4.60
2023-04-30T14:27:16.319Z,5.70
2023-04-30T14:29:43.296Z,5.22
2023-04-30T14:32:10.587Z,8.02
2023-04-30T14:34:37.709Z,5.30
2023-04-30T14:37:05.411Z,6.80
2023-04-30T14:39:32.633Z,6.60
2023-04-30T14:41:59.829Z,5.22
2023-04-30T14:44:27.049Z,5.70
2023-04-30T14:46:54.098Z,5.28
2023-04-30T14:49:21.152Z,7.28
2023-04-30T14:51:48.472Z,6.80
2023-04-30T14:54:15.515Z,7.35
2023-04-30T14:56:42.738Z,7.40
2023-04-30T14:59:09.826Z,7.63
2023-04-30T15:01:36.914Z,6.25
2023-04-30T15:04:04.158Z,5.30
2023-04-30T15:06:31.680Z,5.93
2023-04-30T15:08:58.751Z,5.97
2023-04-30T15:11:25.980Z,5.28
2023-04-30T15:13:55.369Z,5.63
2023-04-30T15:16:22.621Z,6.20
2023-04-30T15:18:49.778Z,6.55
2023-04-30T15:21:16.805Z,6.00
2023-04-30T15:23:44.356Z,9.23
2023-04-30T15:26:11.468Z,8.18
2023-04-30T15:28:38.622Z,15.02
2023-04-30T15:31:06.554Z,10.05
2023-04-30T15:33:39.593Z,15.30
2023-04-30T15:36:06.857Z,11.32
2023-04-30T15:38:34.703Z,9.77
2023-04-30T15:41:01.843Z,9.23
2023-04-30T15:43:30.047Z,8.60
2023-04-30T15:45:57.281Z,10.15
2023-04-30T15:48:24.398Z,9.70
2023-04-30T15:50:51.426Z,8.55
2023-04-30T15:53:18.478Z,11.45
2023-04-30T15:55:46.814Z,12.07
2023-04-30T15:58:13.905Z,11.75
2023-04-30T16:00:41.577Z,13.10
2023-04-30T16:03:08.875Z,12.95
2023-04-30T16:05:38.887Z,12.73
2023-04-30T16:08:09.139Z,15.23
2023-04-30T16:10:37.044Z,13.40
2023-04-30T16:13:04.375Z,13.00
2023-04-30T16:15:32.128Z,11.55
2023-04-30T16:17:59.262Z,11.45
2023-04-30T16:20:27.453Z,10.60
2023-04-30T16:22:55.690Z,9.40
2023-04-30T16:25:22.813Z,8.10
2023-04-30T16:27:50.493Z,9.20
2023-04-30T16:30:17.890Z,10.90
2023-04-30T16:32:44.979Z,11.00
2023-04-30T16:35:12.105Z,11.52
2023-04-30T16:37:39.183Z,14.02
2023-04-30T16:40:07.740Z,10.20
2023-04-30T16:42:35.200Z,11.50
2023-04-30T16:45:02.493Z,11.02
2023-04-30T16:47:33.469Z,11.73
2023-04-30T16:50:00.754Z,13.65
2023-04-30T16:52:28.576Z,10.93
2023-04-30T16:54:55.682Z,11.43
2023-04-30T16:57:25.244Z,13.15
2023-04-30T16:59:52.937Z,9.45
2023-04-30T17:02:20.279Z,13.45
2023-04-30T17:04:47.320Z,9.38
2023-04-30T17:07:14.679Z,11.80
2023-04-30T17:09:42.280Z,9.70
2023-04-30T17:12:09.267Z,10.60
2023-04-30T17:14:36.304Z,10.98
2023-04-30T17:17:03.533Z,10.70
2023-04-30T17:19:30.527Z,13.32
2023-04-30T17:21:57.596Z,10.43
2023-04-30T17:24:25.084Z,9.68
2023-04-30T17:26:52.535Z,8.93
2023-04-30T17:29:23.716Z,8.40
2023-04-30T17:31:50.912Z,10.30
2023-04-30T17:34:18.068Z,7.80
2023-04-30T17:36:45.386Z,8.90
2023-04-30T17:39:12.791Z,8.07
2023-04-30T17:41:39.981Z,7.85
2023-04-30T17:44:07.118Z,8.60
2023-04-30T17:46:34.573Z,9.52
2023-04-30T17:49:03.639Z,9.23
2023-04-30T17:51:31.757Z,8.82
2023-04-30T17:54:01.782Z,10.13
2023-04-30T17:56:32.404Z,10.43
2023-04-30T17:59:00.195Z,9.00
2023-04-30T18:01:27.768Z,10.80
2023-04-30T18:03:55.500Z,10.30
2023-04-30T18:06:22.729Z,9.75
2023-04-30T18:08:49.832Z,10.50
2023-04-30T18:11:16.879Z,12.57
2023-04-30T18:13:44.978Z,9.32
2023-04-30T18:16:14.204Z,10.32
2023-04-30T18:18:41.585Z,10.90
2023-04-30T18:21:08.971Z,9.45
2023-04-30T18:23:36.867Z,10.68
2023-04-30T18:26:04.174Z,8.30
2023-04-30T18:28:31.559Z,12.25
2023-04-30T18:30:58.738Z,8.60
2023-04-30T18:33:26.218Z,9.52
2023-04-30T18:35:54.799Z,9.07
2023-04-30T18:38:22.056Z,8.30
2023-04-30T18:40:54.705Z,10.13
2023-04-30T18:43:25.244Z,9.13
2023-04-30T18:45:52.732Z,8.13
2023-04-30T18:48:22.963Z,10.98
2023-04-30T18:50:50.255Z,10.60
2023-04-30T18:53:18.255Z,10.07
2023-04-30T18:55:45.745Z,10.23
2023-04-30T18:58:13.032Z,8.60
2023-04-30T19:00:42.992Z,12.35
2023-04-30T19:03:10.726Z,10.02
2023-04-30T19:05:37.964Z,9.07
2023-04-30T19:08:05.074Z,10.38
2023-04-30T19:10:33.957Z,8.52
2023-04-30T19:13:01.749Z,9.70
2023-04-30T19:15:30.110Z,9.88
2023-04-30T19:17:57.716Z,11.27
2023-04-30T19:20:25.007Z,10.35
2023-04-30T19:22:52.200Z,9.23
2023-04-30T19:25:19.367Z,12.27
2023-04-30T19:27:47.686Z,9.32
2023-04-30T19:30:15.175Z,9.43
2023-04-30T19:32:42.354Z,6.75
2023-04-30T19:35:09.697Z,9.82
2023-04-30T19:37:37.606Z,8.77
2023-04-30T19:40:10.616Z,8.55
2023-04-30T19:42:39.342Z,7.95
2023-04-30T19:45:08.123Z,7.95
2023-04-30T19:47:36.330Z,9.05
2023-04-30T19:50:03.631Z,9.18
2023-04-30T19:52:32.208Z,7.82
2023-04-30T19:54:59.750Z,6.93
2023-04-30T19:57:28.205Z,7.80
2023-04-30T19:59:55.590Z,8.93
2023-04-30T20:02:22.792Z,8.50
2023-04-30T20:04:49.839Z,7.28
2023-04-30T20:07:18.841Z,7.82
2023-04-30T20:09:46.185Z,10.63
2023-04-30T20:12:13.509Z,8.40
2023-04-30T20:14:40.532Z,7.88
2023-04-30T20:17:07.735Z,12.93
2023-04-30T20:19:34.770Z,13.02
2023-04-30T20:22:02.999Z,19.17
2023-04-30T20:24:29.990Z,17.05
2023-04-30T20:26:56.993Z,14.63
2023-04-30T20:29:24.118Z,15.15
2023-04-30T20:31:52.040Z,16.20
2023-04-30T20:34:20.347Z,12.52
2023-04-30T20:36:47.393Z,9.60
2023-04-30T20:39:14.692Z,14.00
2023-04-30T20:41:42.240Z,12.23
2023-04-30T20:44:09.938Z,10.85
2023-04-30T20:46:38.378Z,10.27
2023-04-30T20:49:05.491Z,10.93
2023-04-30T20:51:32.859Z,14.43
2023-04-30T20:53:59.917Z,13.77
2023-04-30T20:56:27.200Z,13.95
2023-04-30T20:58:54.690Z,12.43
2023-04-30T21:01:22.163Z,17.80
2023-04-30T21:03:49.488Z,12.18
2023-04-30T21:06:17.635Z,10.48
2023-04-30T21:08:44.770Z,11.15
2023-04-30T21:11:14.266Z,8.98
2023-04-30T21:13:41.924Z,8.70
2023-04-30T21:16:09.619Z,8.77
2023-04-30T21:18:36.717Z,7.95
2023-04-30T21:21:05.100Z,6.38
2023-04-30T21:23:32.803Z,9.50
2023-04-30T21:26:00.051Z,9.85
2023-04-30T21:28:27.404Z,9.27
2023-04-30T21:30:54.841Z,9.48
2023-04-30T21:33:22.128Z,9.40
2023-04-30T21:35:49.174Z,10.43
2023-04-30T21:38:16.512Z,11.15
2023-04-30T21:40:43.656Z,11.02
2023-04-30T21:43:10.679Z,15.32
2023-04-30T21:45:37.676Z,12.55
2023-04-30T21:48:05.692Z,18.45
2023-04-30T21:50:33.823Z,15.75
2023-04-30T21:53:01.576Z,19.33
2023-04-30T21:55:28.836Z,17.63
2023-04-30T21:57:55.912Z,16.92
2023-04-30T22:00:23.051Z,17.52
2023-04-30T22:02:51.050Z,16.17
2023-04-30T22:05:19.758Z,10.77
2023-04-30T22:07:47.609Z,10.38
2023-04-30T22:10:17.477Z,8.88
2023-04-30T22:12:47.463Z,8.65
2023-04-30T22:15:15.560Z,11.07
2023-04-30T22:17:42.954Z,7.95
2023-04-30T22:20:10.321Z,8.75
2023-04-30T22:22:37.646Z,7.13
2023-04-30T22:25:05.076Z,6.68
2023-04-30T22:27:32.603Z,8.10
2023-04-30T22:29:59.752Z,6.18
2023-04-30T22:32:27.756Z,6.00
2023-04-30T22:34:54.832Z,7.07
2023-04-30T22:37:21.906Z,6.68
2023-04-30T22:39:48.998Z,4.95
2023-04-30T22:42:16.940Z,6.18
2023-04-30T22:44:45.485Z,7.03
2023-04-30T22:47:13.081Z,5.38
2023-04-30T22:49:40.196Z,5.38
2023-04-30T22:52:07.402Z,4.97
2023-04-30T22:54:35.752Z,5.32
2023-04-30T22:57:03.171Z,5.50
2023-04-30T22:59:30.341Z,4.90
2023-04-30T23:01:57.440Z,6.35
2023-04-30T23:04:24.763Z,5.45
2023-04-30T23:06:52.693Z,5.65
2023-04-30T23:09:19.767Z,5.15
2023-04-30T23:11:47.765Z,4.53
2023-04-30T23:14:14.802Z,5.75
2023-04-30T23:16:42.904Z,5.90
2023-04-30T23:19:10.805Z,6.45
2023-04-30T23:21:37.928Z,5.43
2023-04-30T23:24:05.385Z,5.38
2023-04-30T23:26:32.512Z,6.00
2023-04-30T23:28:59.549Z,5.32
2023-04-30T23:31:27.412Z,5.53
2023-04-30T23:33:54.718Z,5.20
2023-04-30T23:36:22.092Z,5.72
2023-04-30T23:38:49.637Z,4.68
2023-04-30T23:41:16.835Z,5.22
2023-04-30T23:43:43.925Z,5.03
2023-04-30T23:46:11.019Z,6.07
2023-04-30T23:48:38.135Z,5.85
2023-04-30T23:51:05.908Z,7.00
2023-04-30T23:53:32.885Z,6.38
2023-04-30T23:56:00.213Z,5.18
2023-04-30T23:58:31.367Z,6.07
